Current | Forecast
Updated: 5:00 AM EET on November 22, 2017
Observed at Krivvy Rih, Ukraine
Temperature 0°C
Windchill -4°C
Humidity 75%
Dew Point -4°C
Wind West at 11 km/h
Pressure 1013 hPa (Rising)
Conditions Overcast
Visibility 10.0 kilometers
UV 0 out of 16
Clouds Overcast (OVC) : 1463 m
Yesterday's Maximum 3°C
Yesterday's Minimum 0°C approx.
Yesterday's Heating Degree Days 30 approx.
Sunrise7:04 AM EET
Sunset3:58 PM EET
Moon Rise10:09 AM EET
Moon Set7:11 PM EET
Moon PhaseMoon Phase
Waxing Crescent
Raw METARMETAR UKDR 220300Z 27003MPS 9999 OVC048 M00/M04 Q1013 R36/09//70 NOSIG


Monday
. High: 57° F.
Tuesday
. High: 62° F.
Wednesday
. High: 64° F.
Thursday
. High: 68° F.
Friday
. High: 60° F.
Saturday
. High: 57° F.
Sunday
. High: 64° F.
Monday
. High: 71° F.

Units: English | Metric

Find the Weather for any City, State or Zipcode, or Country:

U.S. State List | Severe Weather | Tropical Storms | Ski Conditions
United States | Canada | Central America | South America | Asia | Europe | Australia | Africa | Islands

Weather Underground

© Copyright 2017
The Weather Company, LLC